Time;durP1;ratioP1;P1;durP2;ratioP2;P2;SDS_P1;SDS_P2;PMS_P1;PMS_P2;Temp;Humidity;BMP_temperature;BMP_pressure;BME280_temperature;BME280_humidity;BME280_pressure;Samples;Min_cycle;Max_cycle;Signal;HPM_P1;HPM_P2
2022/04/11 07:58:38;;;;;;;9.27;6.68;;;;;;;8.92;54.28;101637.00;5326712;27;1193712;-71
2022/04/11 08:01:16;;;;;;;6.10;5.43;;;;;;;8.98;53.06;101631.50;5330024;27;20027;-72
2022/04/11 08:03:47;;;;;;;10.10;6.50;;;;;;;9.06;53.11;101626.34;5331497;28;20024;-71
2022/04/11 08:06:19;;;;;;;8.05;6.07;;;;;;;9.14;52.49;101619.50;5341800;28;20844;-71
2022/04/11 08:08:53;;;;;;;8.98;5.70;;;;;;;9.22;52.33;101629.25;5343558;27;20031;-72
2022/04/11 08:11:25;;;;;;;6.65;5.47;;;;;;;9.26;51.60;101617.41;5327005;28;20085;-71
2022/04/11 08:13:56;;;;;;;9.77;6.13;;;;;;;9.30;51.00;101617.72;5339021;28;20405;-69
2022/04/11 08:16:28;;;;;;;9.85;6.43;;;;;;;9.44;51.60;101612.59;5329701;28;20023;-71
2022/04/11 08:18:59;;;;;;;8.75;5.57;;;;;;;9.51;52.91;101614.03;5346304;27;20023;-71
2022/04/11 08:21:30;;;;;;;7.22;6.30;;;;;;;9.58;50.88;101611.84;5342836;27;20027;-70
2022/04/11 08:24:02;;;;;;;7.15;5.72;;;;;;;9.64;52.34;101603.59;5325335;28;20062;-70
2022/04/11 08:26:33;;;;;;;7.68;5.78;;;;;;;9.73;51.84;101611.16;5334878;27;20024;-70
2022/04/11 08:29:04;;;;;;;14.57;10.98;;;;;;;9.76;50.50;101607.03;5334356;28;20113;-71
2022/04/11 08:31:36;;;;;;;8.90;6.60;;;;;;;9.84;50.72;101600.97;5333731;27;20023;-72
2022/04/11 08:34:07;;;;;;;8.40;5.03;;;;;;;9.94;50.84;101598.28;5326591;28;20426;-71
2022/04/11 08:36:39;;;;;;;7.07;5.00;;;;;;;10.00;50.78;101591.69;5349470;27;20041;-71
2022/04/11 08:39:11;;;;;;;7.10;5.45;;;;;;;10.13;50.90;101595.91;5333442;28;20020;-70
2022/04/11 08:41:42;;;;;;;9.27;5.20;;;;;;;10.18;49.48;101593.16;5342577;27;20062;-71
2022/04/11 08:44:14;;;;;;;7.82;4.60;;;;;;;10.29;49.36;101599.63;5341305;27;20039;-71
2022/04/11 08:46:47;;;;;;;6.88;4.40;;;;;;;10.36;50.19;101594.69;5341612;27;20134;-70
2022/04/11 08:49:19;;;;;;;7.43;4.72;;;;;;;10.41;48.05;101596.66;5337720;27;20026;-69
2022/04/11 08:51:50;;;;;;;7.25;3.60;;;;;;;10.44;48.10;101602.47;5342446;27;20459;-71
2022/04/11 08:54:22;;;;;;;7.72;3.78;;;;;;;10.53;47.52;101590.84;5343079;27;20110;-70
2022/04/11 08:56:53;;;;;;;6.22;3.83;;;;;;;10.58;46.48;101596.44;5340816;27;20421;-71
2022/04/11 08:59:24;;;;;;;3.92;3.28;;;;;;;10.66;47.08;101588.44;5341235;28;20478;-71
2022/04/11 09:01:56;;;;;;;7.43;4.35;;;;;;;10.81;48.10;101595.13;5338908;28;20385;-71
2022/04/11 09:04:27;;;;;;;6.82;3.88;;;;;;;10.89;48.18;101600.16;5341945;27;20027;-71
2022/04/11 09:07:01;;;;;;;6.43;4.22;;;;;;;11.02;46.92;101601.56;5330768;28;20027;-69
2022/04/11 09:09:39;;;;;;;5.85;3.78;;;;;;;11.16;48.57;101605.47;5327569;27;20019;-71
2022/04/11 09:12:18;;;;;;;6.53;3.72;;;;;;;11.14;46.91;101593.81;5316989;28;20024;-71
2022/04/11 09:14:56;;;;;;;6.80;3.65;;;;;;;11.29;48.15;101596.59;5326210;28;20024;-71
2022/04/11 09:17:40;;;;;;;4.53;3.38;;;;;;;11.49;46.84;101594.94;5326676;27;20146;-71
2022/04/11 09:20:14;;;;;;;5.05;3.67;;;;;;;11.54;45.21;101583.84;5321851;28;20383;-70
2022/04/11 09:22:45;;;;;;;5.07;3.60;;;;;;;11.52;45.23;101584.09;5316530;28;20054;-71
2022/04/11 09:25:18;;;;;;;6.05;3.42;;;;;;;11.63;45.02;101575.75;5326684;28;20047;-71
2022/04/11 09:28:11;;;;;;;5.55;3.67;;;;;;;11.69;45.93;101572.72;5325203;27;20023;-71
2022/04/11 09:30:45;;;;;;;5.68;3.25;;;;;;;11.79;44.60;101571.88;5324813;28;20024;-70
2022/04/11 09:33:16;;;;;;;8.82;3.95;;;;;;;11.79;43.08;101560.75;5327390;28;20366;-71
2022/04/11 09:35:47;;;;;;;4.20;3.15;;;;;;;11.90;44.47;101556.03;5325707;28;20111;-70
2022/04/11 09:38:21;;;;;;;6.75;3.50;;;;;;;11.90;43.70;101556.88;5326166;28;20023;-71
2022/04/11 09:40:54;;;;;;;6.40;3.28;;;;;;;12.02;43.42;101553.78;5325351;28;20019;-71
2022/04/11 09:43:27;;;;;;;6.13;3.13;;;;;;;12.06;42.77;101554.88;5326274;28;20467;-70
2022/04/11 09:46:00;;;;;;;3.85;2.90;;;;;;;12.15;42.93;101552.38;5325541;27;20024;-70
2022/04/11 09:48:35;;;;;;;4.53;3.35;;;;;;;12.21;42.24;101553.16;5324608;28;20386;-71
2022/04/11 09:51:10;;;;;;;5.47;3.53;;;;;;;12.27;41.89;101547.31;5325440;28;20030;-71
2022/04/11 09:53:42;;;;;;;5.53;3.43;;;;;;;12.32;41.96;101543.66;5325520;28;20472;-72
2022/04/11 09:56:13;;;;;;;4.18;2.80;;;;;;;12.41;41.52;101539.19;5323914;28;20285;-71
2022/04/11 09:58:47;;;;;;;8.73;3.10;;;;;;;12.48;40.97;101539.72;5326830;28;20058;-71
2022/04/11 10:01:19;;;;;;;5.80;3.05;;;;;;;12.44;40.55;101535.81;5327558;27;20111;-71
2022/04/11 10:03:51;;;;;;;9.35;3.28;;;;;;;12.48;39.64;101539.72;5323505;28;20063;-70
2022/04/11 10:06:22;;;;;;;6.50;3.00;;;;;;;12.52;39.32;101528.84;5321313;28;20101;-71
2022/04/11 10:08:53;;;;;;;5.60;3.03;;;;;;;12.50;39.42;101534.69;5315703;28;20531;-71
2022/04/11 10:11:25;;;;;;;4.90;3.30;;;;;;;12.57;40.19;101532.41;5325784;28;20027;-73
2022/04/11 10:13:57;;;;;;;4.82;3.33;;;;;;;12.61;39.92;101533.50;5326347;28;20026;-71
2022/04/11 10:16:28;;;;;;;5.72;2.95;;;;;;;12.76;41.32;101529.81;5324906;28;20561;-71
2022/04/11 10:19:02;;;;;;;5.47;3.63;;;;;;;12.76;39.10;101529.00;5324630;27;20028;-70
2022/04/11 10:21:33;;;;;;;4.97;3.10;;;;;;;12.83;38.15;101529.47;5325208;28;20026;-71
2022/04/11 10:24:13;;;;;;;59.08;47.63;;;;;;;12.80;39.37;101525.31;5308709;28;20023;-71
2022/04/11 10:26:53;;;;;;;6.88;3.47;;;;;;;12.92;40.07;101522.19;5324876;28;20490;-70
2022/04/11 10:29:37;;;;;;;4.82;3.25;;;;;;;13.07;40.36;101512.06;5326689;28;20379;-71
2022/04/11 10:32:14;;;;;;;5.53;3.42;;;;;;;13.16;41.53;101513.91;5309345;28;20024;-71
2022/04/11 10:34:46;;;;;;;6.57;4.40;;;;;;;13.18;40.63;101508.06;5320197;27;20028;-70
2022/04/11 10:37:20;;;;;;;5.93;3.67;;;;;;;13.24;40.92;101518.03;5330854;27;20027;-71
2022/04/11 10:39:53;;;;;;;5.45;3.20;;;;;;;13.18;42.15;101505.28;5308557;28;20035;-71
2022/04/11 10:42:25;;;;;;;7.05;3.30;;;;;;;13.26;40.02;101518.59;5318945;28;20080;-71
2022/04/11 10:44:58;;;;;;;11.40;8.73;;;;;;;13.29;39.69;101514.41;5315758;28;20500;-72
2022/04/11 10:47:32;;;;;;;6.55;4.22;;;;;;;13.25;40.08;101508.56;5309517;28;20036;-70
2022/04/11 10:50:05;;;;;;;7.47;3.40;;;;;;;13.41;40.45;101501.75;5321534;28;20518;-71
2022/04/11 10:52:41;;;;;;;4.70;4.20;;;;;;;13.43;40.13;101493.13;5312702;27;20038;-71
2022/04/11 10:55:17;;;;;;;7.43;4.10;;;;;;;13.54;41.26;101489.09;5318497;28;20020;-70
2022/04/11 10:57:59;;;;;;;6.88;4.03;;;;;;;13.61;40.01;101489.59;5312450;28;20482;-71
2022/04/11 11:00:35;;;;;;;6.30;4.28;;;;;;;13.79;41.58;101478.81;5316965;28;20032;-68
2022/04/11 11:03:09;;;;;;;;;;;;;;;13.86;41.61;101480.13;5324110;28;20039;-67
2022/04/11 11:05:43;;;;;;;7.50;4.88;;;;;;;13.94;40.68;101463.88;5323728;28;20415;-68
2022/04/11 11:08:15;;;;;;;4.85;3.30;;;;;;;13.92;40.49;101467.78;5323144;28;20027;-68
2022/04/11 11:10:55;;;;;;;5.75;3.72;;;;;;;13.94;40.20;101452.72;5322832;27;20043;-69
2022/04/11 11:13:36;;;;;;;11.75;7.65;;;;;;;14.03;39.65;101459.28;5320227;28;20111;-71
2022/04/11 11:16:07;;;;;;;11.48;7.63;;;;;;;14.16;39.77;101455.75;5321802;28;20524;-71
2022/04/11 11:18:51;;;;;;;6.63;4.13;;;;;;;14.15;39.15;101448.53;5324260;28;20131;-70
2022/04/11 11:21:28;;;;;;;8.77;3.80;;;;;;;14.16;38.63;101441.81;5324463;28;20285;-70
2022/04/11 11:24:10;;;;;;;5.35;3.58;;;;;;;14.17;38.35;101445.47;5309369;28;20065;-71
2022/04/11 11:26:46;;;;;;;8.48;4.22;;;;;;;14.38;39.03;101435.66;5322817;27;20039;-70
2022/04/11 11:29:40;;;;;;;6.05;3.78;;;;;;;14.45;37.78;101426.94;5317951;28;20110;-69
2022/04/11 11:32:12;;;;;;;3.30;3.00;;;;;;;14.43;38.02;101421.63;5321984;28;20057;-68
2022/04/11 11:34:43;;;;;;;6.10;3.30;;;;;;;14.47;38.38;101416.25;5323657;28;20464;-68
2022/04/11 11:37:15;;;;;;;4.32;3.22;;;;;;;14.49;36.69;101412.03;5325025;28;20051;-70
2022/04/11 11:39:46;;;;;;;14.57;8.55;;;;;;;14.56;36.58;101403.34;5316118;28;20024;-69
2022/04/11 11:42:20;;;;;;;7.97;3.42;;;;;;;14.65;36.74;101400.66;5322318;28;20483;-69
2022/04/11 11:44:51;;;;;;;9.27;3.75;;;;;;;14.66;36.43;101403.16;5323132;27;20027;-72
2022/04/11 11:47:26;;;;;;;4.35;3.33;;;;;;;14.76;36.66;101400.22;5324589;28;20032;-72
2022/04/11 11:50:16;;;;;;;5.47;2.90;;;;;;;14.88;36.47;101384.94;5323055;28;20028;-69
2022/04/11 11:52:57;;;;;;;5.93;3.60;;;;;;;14.85;35.75;101380.78;5324695;28;20032;-69
2022/04/11 11:55:28;;;;;;;5.43;4.03;;;;;;;14.92;35.66;101378.44;5323125;28;20035;-69
2022/04/11 11:58:04;;;;;;;5.35;3.78;;;;;;;14.98;36.04;101370.78;5320561;28;20040;-70
2022/04/11 12:00:35;;;;;;;;;;;;;;;15.13;35.67;101384.47;5311989;28;20027;-69
2022/04/11 12:06:06;;;;;;;5.57;3.40;;;;;;;15.10;36.16;101368.34;5324404;28;20273;-69
2022/04/11 12:08:37;;;;;;;3.47;2.92;;;;;;;15.16;34.87;101375.50;5323601;28;20367;-70
2022/04/11 12:11:11;;;;;;;6.03;3.15;;;;;;;15.30;34.85;101366.31;5323413;28;20137;-69
2022/04/11 12:13:42;;;;;;;3.78;2.63;;;;;;;15.23;33.05;101370.31;5322633;28;20395;-68
2022/04/11 12:16:17;;;;;;;3.83;2.80;;;;;;;15.36;34.21;101367.84;5323113;28;20020;-72
2022/04/11 12:18:54;;;;;;;5.05;3.47;;;;;;;15.25;34.69;101360.81;5323666;28;20042;-71
2022/04/11 12:21:44;;;;;;;8.68;3.65;;;;;;;15.39;34.08;101364.44;5324297;28;20026;-73
2022/04/11 12:24:15;;;;;;;8.52;4.60;;;;;;;15.45;35.87;101371.59;5318449;28;20161;-69
2022/04/11 12:26:47;;;;;;;4.40;3.45;;;;;;;15.45;34.25;101363.22;5323810;28;20106;-70
2022/04/11 12:29:18;;;;;;;6.15;3.75;;;;;;;15.43;32.68;101365.47;5309470;28;20070;-70
2022/04/11 12:32:03;;;;;;;4.70;3.60;;;;;;;15.50;33.27;101363.09;5321263;28;20490;-69
2022/04/11 12:34:39;;;;;;;6.93;3.60;;;;;;;15.62;32.79;101363.41;5324357;28;20375;-69
2022/04/11 12:37:12;;;;;;;3.88;2.90;;;;;;;15.74;34.82;101353.69;5315614;28;20050;-69
2022/04/11 12:39:57;;;;;;;4.82;3.65;;;;;;;15.84;36.44;101342.28;5323397;28;20073;-71
2022/04/11 12:42:28;;;;;;;7.95;4.15;;;;;;;15.81;33.33;101348.53;5324469;28;20584;-71
2022/04/11 12:45:12;;;;;;;6.30;5.00;;;;;;;15.88;34.32;101337.75;5314316;28;20032;-70
2022/04/11 12:48:06;;;;;;;7.70;5.00;;;;;;;15.99;34.23;101347.53;5325027;28;20042;-70
2022/04/11 12:50:38;;;;;;;8.82;6.35;;;;;;;15.96;34.86;101337.00;5321521;27;20044;-70
2022/04/11 12:53:10;;;;;;;9.25;6.22;;;;;;;16.11;36.26;101340.59;5333181;27;20116;-67
2022/04/11 12:55:42;;;;;;;6.22;5.63;;;;;;;16.13;36.15;101338.28;5311262;28;20024;-72
2022/04/11 12:58:13;;;;;;;8.88;6.78;;;;;;;16.14;35.66;101342.75;5321406;28;20047;-71
2022/04/11 13:00:56;;;;;;;6.95;6.00;;;;;;;16.30;36.39;101344.03;5316666;28;20020;-70
2022/04/11 13:03:28;;;;;;;9.02;7.45;;;;;;;16.22;35.43;101344.78;5321982;28;20031;-70
2022/04/11 13:06:02;;;;;;;10.48;6.88;;;;;;;16.39;35.83;101336.56;5310661;28;20020;-70
2022/04/11 13:08:33;;;;;;;8.82;7.90;;;;;;;16.36;34.47;101334.41;5327623;27;20030;-70
2022/04/11 13:11:04;;;;;;;9.45;7.57;;;;;;;16.38;33.83;101334.88;5318949;28;20459;-70
2022/04/11 13:13:37;;;;;;;9.73;6.57;;;;;;;16.61;35.22;101326.50;5310002;28;20515;-70
2022/04/11 13:19:04;;;;;;;8.60;6.72;;;;;;;16.76;34.83;101323.28;5318240;28;20086;-69
2022/04/11 13:21:38;;;;;;;8.27;5.97;;;;;;;16.82;35.20;101313.66;5310342;28;20459;-70
2022/04/11 13:24:09;;;;;;;18.20;15.02;;;;;;;16.78;35.41;101315.44;5322145;28;20088;-69
2022/04/11 13:26:41;;;;;;;8.18;6.38;;;;;;;16.81;34.96;101312.00;5331076;27;20031;-70
2022/04/11 13:29:12;;;;;;;7.95;4.97;;;;;;;16.97;34.40;101306.78;5313291;28;20024;-70
2022/04/11 13:31:44;;;;;;;6.22;5.60;;;;;;;17.03;32.94;101299.91;5322893;28;20035;-70
2022/04/11 13:34:15;;;;;;;9.10;4.70;;;;;;;17.06;31.39;101296.47;5314921;28;20037;-69
2022/04/11 13:36:46;;;;;;;6.18;4.95;;;;;;;17.19;31.54;101289.09;5327205;28;20020;-69
2022/04/11 13:39:18;;;;;;;6.05;4.80;;;;;;;17.22;32.36;101285.66;5327341;28;20453;-68
2022/04/11 13:41:49;;;;;;;6.80;4.80;;;;;;;17.14;30.95;101289.25;5326665;27;20098;-70
2022/04/11 13:44:23;;;;;;;6.93;5.00;;;;;;;17.17;31.30;101267.00;5317879;28;20031;-70
2022/04/11 13:46:55;;;;;;;7.32;5.20;;;;;;;17.16;31.98;101267.34;5318424;28;20024;-71
2022/04/11 13:49:26;;;;;;;6.95;5.65;;;;;;;17.33;32.80;101259.00;5326482;28;20494;-69
2022/04/11 13:51:58;;;;;;;8.55;5.55;;;;;;;17.54;33.32;101252.78;5312507;27;20015;-69
2022/04/11 13:54:32;;;;;;;7.53;5.18;;;;;;;17.65;33.74;101248.50;5317837;28;20032;-69
2022/04/11 13:57:04;;;;;;;11.20;6.40;;;;;;;17.65;32.80;101234.47;5318134;28;20036;-69
2022/04/11 13:59:39;;;;;;;8.20;5.53;;;;;;;17.77;32.57;101234.66;5326181;27;20030;-70
2022/04/11 14:02:11;;;;;;;6.55;5.28;;;;;;;17.81;32.59;101240.44;5320677;28;20043;-70
2022/04/11 14:04:43;;;;;;;5.97;4.90;;;;;;;17.67;31.17;101240.56;5315572;28;20026;-70
2022/04/11 14:07:14;;;;;;;8.10;4.88;;;;;;;17.67;30.41;101234.97;5312797;28;20024;-70
2022/04/11 14:09:45;;;;;;;8.93;5.20;;;;;;;17.76;30.94;101224.56;5322880;28;20059;-70
2022/04/11 14:12:16;;;;;;;9.68;5.07;;;;;;;17.73;30.07;101222.41;5326502;28;20018;-69
2022/04/11 14:14:48;;;;;;;8.07;5.80;;;;;;;17.74;29.58;101226.03;5326315;28;20446;-69
2022/04/11 14:17:19;;;;;;;7.88;5.53;;;;;;;17.86;31.25;101219.81;5318657;27;20024;-71
2022/04/11 14:19:50;;;;;;;8.05;5.13;;;;;;;17.74;29.31;101224.09;5323722;28;20116;-70
2022/04/11 14:22:22;;;;;;;7.82;4.75;;;;;;;17.84;31.07;101211.72;5325631;28;20024;-76
2022/04/11 14:24:54;;;;;;;6.40;4.55;;;;;;;17.77;30.11;101211.38;5324359;28;20078;-71
2022/04/11 14:27:25;;;;;;;7.65;5.53;;;;;;;17.83;29.77;101210.09;5325212;28;20050;-70
2022/04/11 14:29:57;;;;;;;7.00;5.18;;;;;;;17.86;30.19;101208.59;5325305;28;20047;-70
2022/04/11 14:32:28;;;;;;;8.57;5.05;;;;;;;17.75;29.57;101192.06;5321040;27;20473;-70
2022/04/11 14:35:00;;;;;;;8.50;4.78;;;;;;;17.73;29.54;101183.16;5324750;27;20015;-70
2022/04/11 14:37:31;;;;;;;8.27;5.07;;;;;;;17.74;30.54;101190.44;5324044;28;20035;-73
2022/04/11 14:40:03;;;;;;;7.38;5.47;;;;;;;17.79;29.69;101184.69;5325819;28;20023;-73
2022/04/11 14:42:34;;;;;;;6.90;4.82;;;;;;;17.66;29.17;101171.59;5317108;28;20039;-72
2022/04/11 14:45:06;;;;;;;8.05;4.35;;;;;;;17.68;29.28;101168.47;5325132;28;20027;-73
2022/04/11 14:47:37;;;;;;;9.30;4.88;;;;;;;17.78;30.37;101177.38;5323758;28;20054;-71
2022/04/11 14:50:08;;;;;;;9.02;4.80;;;;;;;17.75;29.94;101174.41;5325741;27;20024;-69
2022/04/11 14:52:40;;;;;;;5.60;4.40;;;;;;;17.68;30.01;101166.50;5315221;28;20470;-71
2022/04/11 14:55:11;;;;;;;9.98;5.03;;;;;;;17.61;29.44;101163.34;5315330;28;20050;-70
2022/04/11 14:57:43;;;;;;;8.10;5.20;;;;;;;17.60;30.32;101167.31;5321457;28;20036;-75
2022/04/11 15:00:15;;;;;;;7.70;5.03;;;;;;;17.67;30.54;101167.66;5325352;27;20024;-73
2022/04/11 15:02:47;;;;;;;9.00;4.45;;;;;;;17.69;30.74;101159.75;5323751;28;20046;-72
2022/04/11 15:05:18;;;;;;;12.68;5.28;;;;;;;17.70;30.74;101157.75;5324810;28;20128;-71
2022/04/11 15:07:50;;;;;;;7.38;4.25;;;;;;;17.56;30.69;101155.09;5323253;27;20051;-70
2022/04/11 15:10:21;;;;;;;6.85;4.88;;;;;;;17.52;30.67;101148.53;5322803;28;20027;-70
2022/04/11 15:12:52;;;;;;;8.48;4.53;;;;;;;17.40;30.66;101140.75;5324711;28;20027;-70
2022/04/11 15:15:24;;;;;;;6.15;4.57;;;;;;;17.33;29.76;101149.66;5324814;28;20058;-70
2022/04/11 15:17:56;;;;;;;7.60;4.30;;;;;;;17.26;29.95;101148.50;5324410;28;20378;-71
2022/04/11 15:20:27;;;;;;;5.43;4.32;;;;;;;17.24;30.17;101148.81;5317335;28;20031;-71
2022/04/11 15:22:59;;;;;;;6.90;3.70;;;;;;;17.23;30.51;101144.38;5325191;28;20036;-72
2022/04/11 15:25:32;;;;;;;6.15;4.20;;;;;;;17.21;31.10;101138.25;5325754;28;20027;-70
2022/04/11 15:28:04;;;;;;;6.65;4.32;;;;;;;17.21;31.09;101141.06;5324096;28;20087;-71
2022/04/11 15:30:36;;;;;;;6.75;4.72;;;;;;;17.14;31.72;101141.53;5325072;28;20035;-71
2022/04/11 15:33:08;;;;;;;5.97;3.90;;;;;;;17.15;32.04;101134.81;5324250;28;20334;-71
2022/04/11 15:35:40;;;;;;;6.57;4.20;;;;;;;17.14;32.21;101144.34;5324740;28;20148;-71
2022/04/11 15:38:11;;;;;;;5.13;4.15;;;;;;;17.02;30.83;101135.75;5323381;28;20024;-70
2022/04/11 15:40:42;;;;;;;6.60;4.18;;;;;;;16.95;30.65;101130.63;5323449;28;20036;-71
2022/04/11 15:43:14;;;;;;;6.25;4.63;;;;;;;16.95;31.36;101119.44;5324504;28;20050;-71
2022/04/11 15:45:46;;;;;;;8.95;5.18;;;;;;;17.04;31.91;101125.03;5324607;28;20099;-71
2022/04/11 15:48:17;;;;;;;8.85;4.60;;;;;;;17.05;32.01;101121.09;5324260;28;20069;-73
2022/04/11 15:50:48;;;;;;;7.25;4.55;;;;;;;17.01;32.05;101116.47;5324680;28;20059;-73
2022/04/11 15:53:20;;;;;;;4.85;3.78;;;;;;;16.90;31.88;101110.38;5319589;28;20031;-72
2022/04/11 15:55:51;;;;;;;7.38;4.20;;;;;;;16.95;32.05;101101.81;5321719;28;20470;-72
2022/04/11 15:58:22;;;;;;;9.18;5.45;;;;;;;16.94;32.25;101095.34;5319117;28;20048;-72
2022/04/11 16:00:54;;;;;;;5.82;4.85;;;;;;;16.92;32.40;101086.47;5322797;28;20064;-74
2022/04/11 16:03:26;;;;;;;8.18;4.97;;;;;;;16.81;32.39;101093.50;5323324;28;20034;-71
2022/04/11 16:05:58;;;;;;;8.00;5.20;;;;;;;16.72;32.73;101098.25;5324277;28;20115;-73
2022/04/11 16:08:29;;;;;;;5.75;4.80;;;;;;;16.76;32.47;101088.03;5323629;28;20035;-71
2022/04/11 16:11:04;;;;;;;6.70;4.15;;;;;;;16.80;32.59;101088.25;5314917;28;20433;-72
2022/04/11 16:13:35;;;;;;;6.88;4.90;;;;;;;16.70;32.86;101094.94;5320071;28;20024;-71
2022/04/11 16:16:07;;;;;;;5.95;5.15;;;;;;;16.65;33.50;101086.69;5325607;28;20496;-71
2022/04/11 16:18:39;;;;;;;11.23;6.20;;;;;;;16.61;32.74;101077.28;5325389;28;20031;-70
2022/04/11 16:21:11;;;;;;;6.07;5.47;;;;;;;16.58;32.72;101075.97;5328263;28;20035;-71
2022/04/11 16:23:42;;;;;;;5.97;4.85;;;;;;;16.49;32.81;101078.75;5328372;28;20058;-71
2022/04/11 16:26:15;;;;;;;6.78;4.50;;;;;;;16.60;32.26;101079.28;5323530;28;20055;-70
2022/04/11 16:28:47;;;;;;;7.88;4.97;;;;;;;16.71;32.43;101068.59;5322841;28;20156;-72
2022/04/11 16:31:18;;;;;;;8.50;4.60;;;;;;;16.67;32.55;101059.19;5327883;28;20474;-71
2022/04/11 16:33:58;;;;;;;7.20;4.82;;;;;;;16.71;32.72;101065.78;5328709;27;20157;-71
2022/04/11 16:36:30;;;;;;;8.10;4.35;;;;;;;16.56;33.10;101067.06;5326612;28;20020;-71
2022/04/11 16:39:01;;;;;;;5.65;4.15;;;;;;;16.52;33.10;101071.69;5328381;28;20115;-71
2022/04/11 16:41:33;;;;;;;6.53;5.00;;;;;;;16.44;33.30;101073.28;5328237;28;20035;-67
2022/04/11 16:44:05;;;;;;;5.63;4.40;;;;;;;16.47;33.52;101063.44;5310465;28;20085;-67
2022/04/11 16:46:38;;;;;;;8.32;5.03;;;;;;;16.45;33.63;101060.94;5318345;28;20023;-67
2022/04/11 16:49:09;;;;;;;6.57;4.20;;;;;;;16.41;33.41;101057.16;5327664;27;20073;-66
2022/04/11 16:51:40;;;;;;;6.32;3.95;;;;;;;16.40;34.07;101051.88;5327162;28;20375;-70
2022/04/11 16:54:13;;;;;;;4.85;4.38;;;;;;;16.30;33.99;101052.97;5328225;28;20110;-70
2022/04/11 16:56:44;;;;;;;8.43;4.80;;;;;;;16.36;34.24;101048.91;5327426;28;20039;-71
2022/04/11 16:59:15;;;;;;;5.82;3.85;;;;;;;16.39;33.97;101053.84;5327424;28;20054;-71
2022/04/11 17:01:47;;;;;;;6.82;4.80;;;;;;;16.17;33.86;101048.31;5320203;28;20027;-71
2022/04/11 17:04:18;;;;;;;7.68;4.68;;;;;;;16.19;33.54;101052.44;5327384;28;20514;-71
2022/04/11 17:06:49;;;;;;;9.63;4.88;;;;;;;16.19;33.69;101057.22;5328524;27;20024;-70
2022/04/11 17:09:21;;;;;;;5.60;4.15;;;;;;;16.06;34.05;101062.59;5328164;28;20019;-70
2022/04/11 17:11:52;;;;;;;6.57;4.50;;;;;;;15.96;33.41;101056.47;5324804;28;20040;-71
2022/04/11 17:14:23;;;;;;;5.25;4.28;;;;;;;15.90;33.71;101069.75;5327590;28;20024;-71
2022/04/11 17:19:44;;;;;;;5.35;4.13;;;;;;;15.85;34.38;101069.91;5326076;28;20044;-72
2022/04/11 17:22:16;;;;;;;7.70;4.68;;;;;;;15.88;34.99;101068.44;5325683;28;20024;-72
2022/04/11 17:24:47;;;;;;;6.88;4.20;;;;;;;15.86;34.50;101065.94;5326573;27;20450;-72
2022/04/11 17:27:21;;;;;;;7.63;3.92;;;;;;;15.83;35.38;101064.59;5324018;28;20023;-70
